createdAt,value
2019-02-08T00:01:00.412Z,100704.78
2019-02-08T00:03:28.586Z,100708.32
2019-02-08T00:05:56.792Z,100707.20
2019-02-08T00:08:25.008Z,100696.94
2019-02-08T00:10:53.251Z,100699.13
2019-02-08T00:13:21.409Z,100706.27
2019-02-08T00:15:49.590Z,100706.01
2019-02-08T00:18:17.779Z,100700.56
2019-02-08T00:20:45.963Z,100709.41
2019-02-08T00:23:26.026Z,100706.66
2019-02-08T00:25:44.063Z,100700.89
2019-02-08T00:28:12.265Z,100703.91
2019-02-08T00:30:40.448Z,100707.70
2019-02-08T00:33:48.779Z,100711.50
2019-02-08T00:36:16.983Z,100707.15
2019-02-08T00:38:45.210Z,100711.39
2019-02-08T00:41:13.403Z,100721.08
2019-02-08T00:43:41.594Z,100713.09
2019-02-08T00:46:09.778Z,100720.63
2019-02-08T00:48:37.982Z,100725.02
2019-02-08T00:51:06.169Z,100727.45
2019-02-08T00:53:34.364Z,100742.30
2019-02-08T00:56:02.548Z,100733.77
2019-02-08T00:58:30.762Z,100741.37
2019-02-08T01:00:58.947Z,100728.67
2019-02-08T01:03:27.161Z,100739.99
2019-02-08T01:09:09.010Z,100742.36
2019-02-08T01:11:37.205Z,100741.25
2019-02-08T01:14:07.146Z,100758.54
2019-02-08T01:16:35.326Z,100761.78
2019-02-08T01:19:03.524Z,100749.73
2019-02-08T01:21:31.721Z,100749.17
2019-02-08T01:23:59.919Z,100753.04
2019-02-08T01:26:28.122Z,100762.05
2019-02-08T01:28:56.312Z,100758.74
2019-02-08T01:31:24.496Z,100763.42
2019-02-08T01:33:52.687Z,100755.99
2019-02-08T01:36:20.874Z,100755.73
2019-02-08T01:39:08.507Z,100758.42
2019-02-08T01:41:36.689Z,100755.67
2019-02-08T01:44:04.889Z,100754.23
2019-02-08T01:46:33.091Z,100756.66
2019-02-08T01:49:01.288Z,100751.72
2019-02-08T01:51:29.465Z,100756.10
2019-02-08T01:53:57.669Z,100756.10
2019-02-08T01:56:25.866Z,100765.41
2019-02-08T01:58:54.044Z,100759.88
2019-02-08T02:01:22.239Z,100757.03
2019-02-08T02:03:50.440Z,100761.66
2019-02-08T02:06:18.653Z,100756.73
2019-02-08T02:08:46.837Z,100755.10
2019-02-08T02:11:15.031Z,100763.13
2019-02-08T02:13:43.208Z,100772.11
2019-02-08T02:16:11.407Z,100764.17
2019-02-08T02:18:39.592Z,100773.25
2019-02-08T02:21:07.784Z,100777.11
2019-02-08T02:23:35.991Z,100766.16
2019-02-08T02:26:04.180Z,100771.61
2019-02-08T02:28:32.388Z,100774.36
2019-02-08T02:31:00.587Z,100770.00
2019-02-08T02:33:28.768Z,100770.79
2019-02-08T02:35:57.033Z,100771.61
2019-02-08T02:38:25.242Z,100771.88
2019-02-08T02:40:53.441Z,100767.16
2019-02-08T02:43:21.699Z,100776.00
2019-02-08T02:45:49.890Z,100777.55
2019-02-08T02:48:18.075Z,100784.75
2019-02-08T02:50:46.287Z,100780.62
2019-02-08T02:53:14.471Z,100780.53
2019-02-08T02:55:42.664Z,100786.30
2019-02-08T02:58:10.871Z,100796.54
2019-02-08T03:00:58.502Z,100794.38
2019-02-08T03:03:26.672Z,100804.56
2019-02-08T03:05:54.972Z,100806.81
2019-02-08T03:08:23.147Z,100811.27
2019-02-08T03:10:51.366Z,100811.81
2019-02-08T03:13:19.577Z,100817.05
2019-02-08T03:15:47.789Z,100807.20
2019-02-08T03:18:16.001Z,100811.32
2019-02-08T03:20:44.175Z,100814.62
2019-02-08T03:23:12.399Z,100811.88
2019-02-08T03:28:41.191Z,100811.81
2019-02-08T03:31:49.503Z,100817.00
2019-02-08T03:34:17.706Z,100808.74
2019-02-08T03:36:45.905Z,100811.50
2019-02-08T03:39:14.097Z,100822.77
2019-02-08T03:41:42.315Z,100819.52
2019-02-08T03:44:10.518Z,100817.00
2019-02-08T03:46:38.717Z,100821.45
2019-02-08T03:49:06.897Z,100831.62
2019-02-08T03:51:35.080Z,100827.50
2019-02-08T03:54:03.279Z,100828.82
2019-02-08T03:56:31.462Z,100828.77
2019-02-08T03:58:59.670Z,100834.05
2019-02-08T04:01:27.856Z,100831.02
2019-02-08T04:04:36.188Z,100830.92
2019-02-08T04:07:04.402Z,100841.75
2019-02-08T04:09:32.606Z,100827.00
2019-02-08T04:12:00.787Z,100828.67
2019-02-08T04:14:28.987Z,100831.53
2019-02-08T04:16:57.181Z,100832.41
2019-02-08T04:19:25.382Z,100836.13
2019-02-08T04:21:53.566Z,100835.36
2019-02-08T04:24:29.605Z,100837.00
2019-02-08T04:26:51.692Z,100841.36
2019-02-08T04:29:19.885Z,100845.55
2019-02-08T04:31:48.111Z,100837.61
2019-02-08T04:34:16.270Z,100838.67
2019-02-08T04:36:44.448Z,100841.13
2019-02-08T04:39:12.679Z,100845.55
2019-02-08T04:41:40.864Z,100842.80
2019-02-08T04:44:09.059Z,100840.86
2019-02-08T04:46:37.241Z,100840.86
2019-02-08T04:49:45.552Z,100843.06
2019-02-08T04:52:13.734Z,100846.31
2019-02-08T04:54:41.951Z,100852.12
2019-02-08T04:57:10.131Z,100844.94
2019-02-08T04:59:38.334Z,100853.19
2019-02-08T05:02:06.519Z,100852.91
2019-02-08T05:04:34.712Z,100856.25
2019-02-08T05:07:02.898Z,100852.86
2019-02-08T05:09:31.104Z,100849.30
2019-02-08T05:11:59.308Z,100847.36
2019-02-08T05:14:27.502Z,100856.11
2019-02-08T05:16:55.681Z,100848.30
2019-02-08T05:19:23.903Z,100854.53
2019-02-08T05:21:52.117Z,100846.55
2019-02-08T05:24:20.327Z,100849.63
2019-02-08T05:26:48.507Z,100861.18
2019-02-08T05:29:16.714Z,100850.73
2019-02-08T05:31:44.918Z,100854.36
2019-02-08T05:34:13.118Z,100849.91
2019-02-08T05:36:41.316Z,100853.48
2019-02-08T05:42:10.163Z,100840.55
2019-02-08T05:44:38.382Z,100839.50
2019-02-08T05:47:06.586Z,100848.54
2019-02-08T05:49:34.850Z,100847.16
2019-02-08T05:52:03.038Z,100843.24
2019-02-08T05:54:31.215Z,100839.38
2019-02-08T05:56:59.410Z,100842.13
2019-02-08T05:59:27.603Z,100842.95
2019-02-08T06:01:55.805Z,100827.00
2019-02-08T06:04:24.000Z,100830.81
2019-02-08T06:06:52.200Z,100843.19
2019-02-08T06:09:20.385Z,100846.55
2019-02-08T06:11:48.580Z,100842.95
2019-02-08T06:14:16.790Z,100847.31
2019-02-08T06:16:44.992Z,100843.13
2019-02-08T06:19:14.917Z,100846.44
2019-02-08T06:21:43.138Z,100844.03
2019-02-08T06:24:11.323Z,100837.48
2019-02-08T06:26:39.519Z,100854.25
2019-02-08T06:29:07.700Z,100853.14
2019-02-08T06:31:35.914Z,100853.14
2019-02-08T06:34:04.095Z,100845.41
2019-02-08T06:36:32.313Z,100844.89
2019-02-08T06:39:00.585Z,100848.48
2019-02-08T06:41:28.760Z,100850.18
2019-02-08T06:43:56.958Z,100849.73
2019-02-08T06:46:25.168Z,100859.73
2019-02-08T06:48:53.362Z,100859.50
2019-02-08T06:51:21.541Z,100857.30
2019-02-08T06:53:49.735Z,100855.38
2019-02-08T06:56:37.031Z,100862.55
2019-02-08T07:01:59.743Z,100866.67
2019-02-08T07:07:35.921Z,100861.66
2019-02-08T07:15:59.117Z,100859.12
2019-02-08T07:18:46.429Z,100854.68
2019-02-08T07:24:22.596Z,100853.81
2019-02-08T07:27:09.914Z,100846.99
2019-02-08T07:29:57.242Z,100856.41
2019-02-08T07:32:44.708Z,100852.38
2019-02-08T07:35:32.015Z,100852.17
2019-02-08T07:41:29.199Z,100864.52
2019-02-08T07:44:16.511Z,100856.09
2019-02-08T07:55:54.258Z,100877.23
2019-02-08T08:04:09.512Z,100874.36
2019-02-08T08:06:56.846Z,100868.97
2019-02-08T08:09:44.201Z,100876.46
2019-02-08T08:12:31.490Z,100876.78
2019-02-08T08:17:53.972Z,100876.46
2019-02-08T08:21:02.301Z,100880.91
2019-02-08T08:23:49.598Z,100878.48
2019-02-08T08:26:36.901Z,100872.55
2019-02-08T08:32:30.349Z,100877.28
2019-02-08T08:38:30.306Z,100878.38
2019-02-08T08:41:37.318Z,100880.63
2019-02-08T08:44:44.297Z,100875.67
2019-02-08T08:47:52.602Z,100867.86
2019-02-08T08:50:59.611Z,100870.90
2019-02-08T08:54:06.589Z,100864.28
2019-02-08T08:57:14.979Z,100859.66
2019-02-08T09:03:36.191Z,100859.61
2019-02-08T09:06:43.187Z,100853.66
2019-02-08T09:09:50.161Z,100854.55
2019-02-08T09:12:58.471Z,100855.62
2019-02-08T09:22:06.925Z,100841.55
2019-02-08T09:28:28.023Z,100849.97
2019-02-08T09:31:35.054Z,100852.73
2019-02-08T09:40:43.962Z,100853.11
2019-02-08T09:43:50.983Z,100843.31
2019-02-08T09:53:12.033Z,100846.29
2019-02-08T09:56:11.445Z,100850.56
2019-02-08T09:59:18.435Z,100861.41
2019-02-08T10:02:25.423Z,100859.84
2019-02-08T10:05:33.755Z,100860.94
2019-02-08T10:08:40.753Z,100854.27
2019-02-08T10:11:47.734Z,100856.41
2019-02-08T10:14:54.948Z,100856.15
2019-02-08T10:21:02.994Z,100860.16
2019-02-08T10:24:11.366Z,100856.36
2019-02-08T10:27:18.366Z,100858.73
2019-02-08T10:30:25.368Z,100850.64
2019-02-08T10:36:45.851Z,100844.95
2019-02-08T10:39:52.852Z,100853.88
2019-02-08T10:46:14.110Z,100843.42
2019-02-08T10:49:22.475Z,100833.06
2019-02-08T10:52:29.456Z,100831.69
2019-02-08T10:55:37.777Z,100831.04
2019-02-08T11:01:45.360Z,100822.16
2019-02-08T11:04:53.670Z,100833.77
2019-02-08T11:08:00.646Z,100814.90
2019-02-08T11:11:09.046Z,100824.15
2019-02-08T11:17:29.896Z,100818.51
2019-02-08T11:19:58.123Z,100815.98
2019-02-08T11:22:26.304Z,100813.42
2019-02-08T11:24:54.527Z,100813.98
2019-02-08T11:27:22.703Z,100806.77
2019-02-08T11:29:50.902Z,100801.20
2019-02-08T11:32:19.116Z,100796.94
2019-02-08T11:34:47.323Z,100798.54
2019-02-08T11:37:15.527Z,100789.39
2019-02-08T11:39:43.732Z,100788.57
2019-02-08T11:44:45.802Z,100782.66
2019-02-08T11:47:14.016Z,100771.91
2019-02-08T11:49:42.217Z,100772.39
2019-02-08T11:52:10.412Z,100766.33
2019-02-08T11:54:38.594Z,100771.02
2019-02-08T11:59:41.122Z,100752.31
2019-02-08T12:02:16.323Z,100746.63
2019-02-08T12:04:44.501Z,100745.51
2019-02-08T12:07:12.698Z,100751.73
2019-02-08T12:10:00.238Z,100745.92
2019-02-08T12:12:28.429Z,100747.45
2019-02-08T12:14:56.630Z,100749.41
2019-02-08T12:17:43.963Z,100743.15
2019-02-08T12:20:12.143Z,100735.30
2019-02-08T12:22:40.342Z,100744.76
2019-02-08T12:25:27.970Z,100734.63
2019-02-08T12:27:56.165Z,100725.56
2019-02-08T12:31:04.474Z,100727.50
2019-02-08T12:33:32.690Z,100713.95
2019-02-08T12:36:00.875Z,100712.42
2019-02-08T12:38:29.070Z,100712.64
2019-02-08T12:40:57.278Z,100708.77
2019-02-08T12:43:44.611Z,100712.56
2019-02-08T12:46:12.792Z,100706.97
2019-02-08T12:48:40.990Z,100701.05
2019-02-08T12:51:09.174Z,100711.73
2019-02-08T12:53:56.502Z,100701.61
2019-02-08T12:56:24.685Z,100692.03
2019-02-08T12:58:52.877Z,100696.17
2019-02-08T13:01:21.057Z,100689.05
2019-02-08T13:03:49.252Z,100685.00
2019-02-08T13:06:17.453Z,100678.44
2019-02-08T13:08:45.653Z,100686.45
2019-02-08T13:11:13.840Z,100669.43
2019-02-08T13:13:42.068Z,100677.70
2019-02-08T13:16:10.215Z,100669.54
2019-02-08T13:18:38.410Z,100667.42
2019-02-08T13:21:06.614Z,100661.34
2019-02-08T13:23:34.811Z,100658.81
2019-02-08T13:26:03.000Z,100645.70
2019-02-08T13:28:31.218Z,100649.02
2019-02-08T13:30:59.417Z,100651.22
2019-02-08T13:33:27.629Z,100645.03
2019-02-08T13:35:55.809Z,100640.00
2019-02-08T13:38:43.113Z,100632.47
2019-02-08T13:41:11.294Z,100625.23
2019-02-08T13:43:39.516Z,100622.06
2019-02-08T13:48:54.973Z,100606.14
2019-02-08T13:51:23.149Z,100610.05
2019-02-08T13:53:51.337Z,100612.81
2019-02-08T13:56:19.526Z,100621.08
2019-02-08T13:58:47.737Z,100617.52
2019-02-08T14:01:15.950Z,100612.55
2019-02-08T14:03:44.136Z,100620.27
2019-02-08T14:08:46.042Z,100602.48
2019-02-08T14:11:14.233Z,100592.67
2019-02-08T14:13:42.414Z,100582.45
2019-02-08T14:16:10.605Z,100588.92
2019-02-08T14:18:38.813Z,100585.48
2019-02-08T14:21:07.025Z,100597.00
2019-02-08T14:23:35.209Z,100594.72
2019-02-08T14:26:03.407Z,100601.75
2019-02-08T14:34:26.359Z,100559.77
2019-02-08T14:36:54.559Z,100565.86
2019-02-08T14:39:22.751Z,100565.30
2019-02-08T14:41:50.979Z,100564.34
2019-02-08T14:44:19.164Z,100555.72
2019-02-08T14:46:47.365Z,100568.05
2019-02-08T14:49:15.550Z,100560.80
2019-02-08T14:51:43.755Z,100560.72
2019-02-08T14:54:11.975Z,100562.66
2019-02-08T14:56:40.209Z,100562.09
2019-02-08T14:59:08.387Z,100552.91
2019-02-08T15:01:36.611Z,100547.05
2019-02-08T15:04:04.861Z,100553.86
2019-02-08T15:06:33.064Z,100552.57
2019-02-08T15:09:01.247Z,100557.52
2019-02-08T15:11:29.454Z,100566.37
2019-02-08T15:13:57.639Z,100544.29
2019-02-08T15:16:25.838Z,100542.66
2019-02-08T15:18:54.033Z,100557.84
2019-02-08T15:21:22.232Z,100537.27
2019-02-08T15:23:50.420Z,100541.36
2019-02-08T15:26:18.600Z,100530.16
2019-02-08T15:28:46.819Z,100540.47
2019-02-08T15:31:15.006Z,100529.30
2019-02-08T15:33:43.214Z,100524.09
2019-02-08T15:36:11.394Z,100526.97
2019-02-08T15:38:39.604Z,100513.27
2019-02-08T15:41:07.792Z,100515.55
2019-02-08T15:43:35.991Z,100507.92
2019-02-08T15:46:04.173Z,100512.19
2019-02-08T15:48:32.370Z,100506.41
2019-02-08T15:51:00.549Z,100498.14
2019-02-08T15:53:28.741Z,100498.39
2019-02-08T15:56:16.371Z,100490.12
2019-02-08T15:58:44.587Z,100486.55
2019-02-08T16:01:12.772Z,100498.70
2019-02-08T16:06:35.773Z,100483.36
2019-02-08T16:11:58.059Z,100487.92
2019-02-08T16:14:26.658Z,100490.06
2019-02-08T16:16:54.827Z,100485.45
2019-02-08T16:19:23.034Z,100479.80
2019-02-08T16:21:51.218Z,100481.75
2019-02-08T16:24:19.419Z,100485.48
2019-02-08T16:26:47.601Z,100488.33
2019-02-08T16:29:15.797Z,100468.42
2019-02-08T16:31:43.981Z,100466.01
2019-02-08T16:34:12.199Z,100459.55
2019-02-08T16:36:40.381Z,100459.41
2019-02-08T16:39:48.681Z,100452.27
2019-02-08T16:42:16.890Z,100445.45
2019-02-08T16:44:45.099Z,100435.45
2019-02-08T16:47:53.418Z,100437.14
2019-02-08T16:51:01.730Z,100427.70
2019-02-08T16:53:29.914Z,100417.92
2019-02-08T16:55:59.634Z,100416.63
2019-02-08T16:58:28.017Z,100410.08
2019-02-08T17:00:56.239Z,100418.42
2019-02-08T17:03:24.442Z,100407.32
2019-02-08T17:05:52.665Z,100421.88
2019-02-08T17:08:20.848Z,100420.50
2019-02-08T17:10:49.061Z,100403.89
2019-02-08T17:13:17.267Z,100400.57
2019-02-08T17:15:45.461Z,100408.84
2019-02-08T17:18:13.646Z,100403.33
2019-02-08T17:21:21.974Z,100395.88
2019-02-08T17:23:50.178Z,100400.48
2019-02-08T17:26:18.382Z,100382.46
2019-02-08T17:28:46.568Z,100385.47
2019-02-08T17:31:14.761Z,100383.53
2019-02-08T17:33:42.944Z,100379.53
2019-02-08T17:36:11.178Z,100372.86
2019-02-08T17:38:39.345Z,100367.27
2019-02-08T17:41:07.542Z,100365.23
2019-02-08T17:43:35.733Z,100349.83
2019-02-08T17:46:03.930Z,100353.31
2019-02-08T17:48:32.116Z,100340.31
2019-02-08T17:51:00.308Z,100337.56
2019-02-08T17:53:28.490Z,100332.22
2019-02-08T17:55:56.692Z,100330.49
2019-02-08T17:58:24.880Z,100332.69
2019-02-08T18:03:28.350Z,100320.16
2019-02-08T18:05:56.550Z,100322.83
2019-02-08T18:08:24.725Z,100327.09
2019-02-08T18:10:52.905Z,100324.24
2019-02-08T18:13:21.118Z,100315.31
2019-02-08T18:15:49.326Z,100310.27
2019-02-08T18:18:57.674Z,100309.68
2019-02-08T18:21:25.867Z,100308.30
2019-02-08T18:23:54.061Z,100289.25
2019-02-08T18:26:22.294Z,100282.58
2019-02-08T18:28:50.509Z,100294.08
2019-02-08T18:31:18.702Z,100295.70
2019-02-08T18:33:46.927Z,100291.79
2019-02-08T18:36:15.119Z,100279.29
2019-02-08T18:38:43.303Z,100286.09
2019-02-08T18:41:11.506Z,100267.60
2019-02-08T18:43:39.716Z,100275.06
2019-02-08T18:46:07.897Z,100264.72
2019-02-08T18:48:36.092Z,100258.42
2019-02-08T18:51:04.298Z,100255.41
2019-02-08T18:53:32.515Z,100257.36
2019-02-08T18:56:00.693Z,100259.20
2019-02-08T18:58:28.891Z,100242.56
2019-02-08T19:00:57.098Z,100233.63
2019-02-08T19:03:25.298Z,100230.98
2019-02-08T19:05:53.507Z,100231.20
2019-02-08T19:08:21.735Z,100223.40
2019-02-08T19:10:49.940Z,100228.03
2019-02-08T19:13:37.257Z,100214.14
2019-02-08T19:16:05.463Z,100215.75
2019-02-08T19:18:33.668Z,100221.02
2019-02-08T19:21:01.860Z,100212.99
2019-02-08T19:23:30.082Z,100212.99
2019-02-08T19:25:58.279Z,100208.16
2019-02-08T19:28:26.859Z,100199.78
2019-02-08T19:30:56.398Z,100202.02
2019-02-08T19:33:24.622Z,100194.78
2019-02-08T19:35:52.815Z,100190.30
2019-02-08T19:38:21.020Z,100194.08
2019-02-08T19:40:49.212Z,100199.48
2019-02-08T19:43:17.443Z,100187.77
2019-02-08T19:45:45.603Z,100177.65
2019-02-08T19:48:13.786Z,100166.94
2019-02-08T19:51:22.093Z,100170.86
2019-02-08T19:53:50.299Z,100177.51
2019-02-08T19:56:18.489Z,100160.74
2019-02-08T19:58:46.711Z,100164.95
2019-02-08T20:01:14.901Z,100154.73
2019-02-08T20:03:43.124Z,100155.40
2019-02-08T20:09:25.686Z,100143.80
2019-02-08T20:11:53.906Z,100144.16
2019-02-08T20:14:22.129Z,100125.98
2019-02-08T20:16:50.339Z,100125.06
2019-02-08T20:19:18.542Z,100119.22
2019-02-08T20:21:46.733Z,100127.25
2019-02-08T20:24:14.938Z,100118.05
2019-02-08T20:26:43.126Z,100115.30
2019-02-08T20:29:11.351Z,100114.73
2019-02-08T20:31:39.541Z,100110.03
2019-02-08T20:34:07.762Z,100105.08
2019-02-08T20:36:35.944Z,100102.31
2019-02-08T20:39:44.276Z,100103.12
2019-02-08T20:42:12.459Z,100098.42
2019-02-08T20:44:40.659Z,100092.59
2019-02-08T20:47:08.845Z,100096.59
2019-02-08T20:49:37.089Z,100092.45
2019-02-08T20:52:05.278Z,100107.63
2019-02-08T20:54:33.478Z,100071.44
2019-02-08T20:57:01.689Z,100076.59
2019-02-08T20:59:29.940Z,100082.01
2019-02-08T21:01:58.119Z,100071.75
2019-02-08T21:04:26.311Z,100068.22
2019-02-08T21:06:54.510Z,100063.48
2019-02-08T21:09:22.715Z,100065.10
2019-02-08T21:11:50.914Z,100058.20
2019-02-08T21:14:19.097Z,100054.52
2019-02-08T21:16:47.301Z,100060.25
2019-02-08T21:19:15.486Z,100044.52
2019-02-08T21:21:43.681Z,100050.48
2019-02-08T21:24:11.886Z,100039.23
2019-02-08T21:26:40.090Z,100047.97
2019-02-08T21:29:08.273Z,100047.62
2019-02-08T21:31:36.473Z,100040.48
2019-02-08T21:34:04.666Z,100035.45
2019-02-08T21:36:38.864Z,100031.30
2019-02-08T21:41:51.677Z,100024.63
2019-02-08T21:47:33.720Z,100013.11
2019-02-08T21:50:01.908Z,99995.42
2019-02-08T21:52:30.112Z,100011.73
2019-02-08T21:54:58.298Z,100000.48
2019-02-08T21:57:26.514Z,99992.98
2019-02-08T21:59:54.696Z,99993.23
2019-02-08T22:02:22.893Z,99979.07
2019-02-08T22:04:51.086Z,99978.72
2019-02-08T22:07:19.302Z,99979.77
2019-02-08T22:09:47.492Z,99983.91
2019-02-08T22:12:15.686Z,99970.67
2019-02-08T22:14:43.888Z,99978.84
2019-02-08T22:17:12.080Z,99972.72
2019-02-08T22:19:40.289Z,99968.58
2019-02-08T22:22:08.514Z,99948.34
2019-02-08T22:24:36.695Z,99951.70
2019-02-08T22:27:04.916Z,99950.08
2019-02-08T22:29:33.097Z,99936.52
2019-02-08T22:32:01.289Z,99931.00
2019-02-08T22:34:29.472Z,99924.09
2019-02-08T22:36:57.687Z,99926.86
2019-02-08T22:39:25.864Z,99920.98
2019-02-08T22:41:54.057Z,99922.36
2019-02-08T22:44:22.261Z,99915.67
2019-02-08T22:46:50.458Z,99900.48
2019-02-08T22:49:18.627Z,99907.06
2019-02-08T22:51:46.846Z,99904.05
2019-02-08T22:54:15.042Z,99910.39
2019-02-08T22:56:43.249Z,99906.25
2019-02-08T22:59:11.455Z,99902.92
2019-02-08T23:01:39.638Z,99897.61
2019-02-08T23:04:07.840Z,99897.97
2019-02-08T23:06:44.072Z,99900.16
2019-02-08T23:09:46.083Z,99897.61
2019-02-08T23:12:14.275Z,99906.45
2019-02-08T23:14:42.457Z,99883.80
2019-02-08T23:17:10.651Z,99890.70
2019-02-08T23:19:38.824Z,99892.54
2019-02-08T23:22:07.007Z,99883.23
2019-02-08T23:24:35.222Z,99879.30
2019-02-08T23:27:03.404Z,99879.30
2019-02-08T23:29:31.602Z,99869.31
2019-02-08T23:31:59.816Z,99868.51
2019-02-08T23:34:28.003Z,99862.75
2019-02-08T23:36:56.206Z,99868.27
2019-02-08T23:39:24.397Z,99849.30
2019-02-08T23:41:52.604Z,99900.73
2019-02-08T23:44:20.801Z,99856.92
2019-02-08T23:46:49.010Z,99853.93
2019-02-08T23:49:17.206Z,99850.03
2019-02-08T23:51:45.412Z,99844.27
2019-02-08T23:54:13.609Z,99851.17
2019-02-08T23:56:41.817Z,99837.61
2019-02-08T23:59:10.012Z,99848.41
